createdAt,value
2022-08-20T00:01:01.934Z,2.30
2022-08-20T00:04:07.188Z,2.38
2022-08-20T00:07:10.537Z,2.90
2022-08-20T00:10:13.885Z,2.13
2022-08-20T00:13:22.175Z,2.30
2022-08-20T00:16:27.717Z,2.17
2022-08-20T00:19:30.947Z,2.20
2022-08-20T00:22:35.749Z,2.27
2022-08-20T00:25:40.592Z,2.33
2022-08-20T00:28:44.489Z,2.53
2022-08-20T00:31:47.693Z,2.38
2022-08-20T00:34:51.076Z,2.30
2022-08-20T00:38:00.513Z,2.17
2022-08-20T00:41:05.689Z,2.50
2022-08-20T00:44:12.053Z,2.13
2022-08-20T00:47:15.286Z,2.53
2022-08-20T00:50:22.106Z,2.50
2022-08-20T00:53:26.940Z,2.40
2022-08-20T00:56:33.920Z,2.60
2022-08-20T00:59:40.379Z,2.53
2022-08-20T01:02:44.668Z,2.78
2022-08-20T01:05:50.663Z,2.55
2022-08-20T01:08:53.929Z,2.87
2022-08-20T01:11:57.284Z,2.50
2022-08-20T01:15:02.970Z,2.65
2022-08-20T01:18:10.961Z,3.05
2022-08-20T01:21:14.517Z,2.83
2022-08-20T01:24:39.256Z,3.27
2022-08-20T01:27:43.101Z,3.27
2022-08-20T01:30:46.503Z,3.70
2022-08-20T01:33:51.843Z,3.65
2022-08-20T01:36:57.463Z,3.35
2022-08-20T01:40:01.920Z,3.23
2022-08-20T01:43:09.674Z,3.17
2022-08-20T01:46:13.695Z,3.30
2022-08-20T01:49:25.468Z,2.90
2022-08-20T01:52:48.940Z,3.53
2022-08-20T01:55:52.870Z,3.17
2022-08-20T01:58:59.251Z,2.70
2022-08-20T02:02:03.118Z,3.35
2022-08-20T02:05:07.063Z,3.00
2022-08-20T02:08:10.291Z,3.22
2022-08-20T02:11:14.876Z,3.10
2022-08-20T02:14:18.152Z,3.47
2022-08-20T02:17:24.000Z,3.10
2022-08-20T02:20:30.311Z,3.30
2022-08-20T02:23:36.088Z,3.30
2022-08-20T02:26:40.315Z,2.30
2022-08-20T02:29:43.694Z,3.40
2022-08-20T02:32:47.413Z,2.53
2022-08-20T02:35:51.209Z,2.00
2022-08-20T02:38:54.407Z,2.05
2022-08-20T02:41:57.762Z,1.93
2022-08-20T02:45:01.699Z,2.37
2022-08-20T02:48:05.540Z,2.00
2022-08-20T02:51:09.375Z,2.28
2022-08-20T02:54:13.312Z,2.35
2022-08-20T02:57:20.791Z,2.10
2022-08-20T03:00:24.049Z,2.10
2022-08-20T03:03:27.297Z,2.30
2022-08-20T03:06:31.380Z,2.50
2022-08-20T03:09:34.622Z,2.20
2022-08-20T03:12:38.414Z,2.20
2022-08-20T03:15:48.128Z,2.87
2022-08-20T03:18:52.040Z,3.03
2022-08-20T03:21:55.694Z,2.90
2022-08-20T03:24:58.804Z,2.83
2022-08-20T03:28:02.397Z,2.30
2022-08-20T03:31:06.248Z,2.97
2022-08-20T03:34:09.443Z,2.55
2022-08-20T03:37:12.769Z,2.63
2022-08-20T03:40:24.658Z,3.20
2022-08-20T03:43:28.126Z,3.30
2022-08-20T03:46:31.427Z,2.90
2022-08-20T03:49:36.300Z,3.80
2022-08-20T03:52:39.948Z,3.50
2022-08-20T03:55:54.771Z,3.55
2022-08-20T03:58:59.035Z,4.00
2022-08-20T04:02:02.295Z,4.60
2022-08-20T04:05:07.309Z,4.20
2022-08-20T04:08:30.885Z,5.05
2022-08-20T04:11:34.057Z,4.18
2022-08-20T04:14:37.286Z,4.67
2022-08-20T04:17:45.093Z,4.80
2022-08-20T04:20:48.693Z,3.17
2022-08-20T04:23:52.638Z,4.32
2022-08-20T04:26:56.239Z,2.50
2022-08-20T04:30:04.049Z,2.83
2022-08-20T04:33:07.245Z,2.30
2022-08-20T04:36:10.803Z,2.85
2022-08-20T04:39:15.511Z,1.73
2022-08-20T04:42:18.761Z,3.00
2022-08-20T04:45:22.235Z,3.13
2022-08-20T04:48:28.713Z,4.77
2022-08-20T04:51:33.940Z,6.03
2022-08-20T04:54:37.275Z,4.82
2022-08-20T04:57:41.092Z,5.07
2022-08-20T05:00:48.102Z,4.17
2022-08-20T05:03:54.680Z,3.10
2022-08-20T05:06:57.946Z,4.55
2022-08-20T05:10:05.807Z,3.97
2022-08-20T05:13:09.825Z,4.97
2022-08-20T05:16:13.112Z,4.67
2022-08-20T05:19:17.396Z,5.53
2022-08-20T05:22:20.564Z,5.20
2022-08-20T05:25:24.348Z,5.78
2022-08-20T05:28:32.913Z,5.65
2022-08-20T05:31:40.144Z,5.00
2022-08-20T05:34:43.347Z,4.87
2022-08-20T05:38:11.559Z,5.78
2022-08-20T05:41:14.920Z,3.80
2022-08-20T05:44:31.773Z,8.55
2022-08-20T05:47:39.599Z,8.77
2022-08-20T05:50:51.988Z,8.50
2022-08-20T05:53:57.412Z,8.90
2022-08-20T05:57:02.821Z,8.23
2022-08-20T06:00:10.633Z,7.22
2022-08-20T06:03:36.777Z,5.80
2022-08-20T06:06:46.072Z,2.30
2022-08-20T06:09:50.907Z,5.03
2022-08-20T06:12:54.097Z,3.13
2022-08-20T06:15:57.924Z,8.13
2022-08-20T06:19:04.746Z,3.77
2022-08-20T06:22:18.423Z,5.37
2022-08-20T06:25:24.402Z,6.32
2022-08-20T06:28:27.720Z,12.18
2022-08-20T06:31:31.035Z,14.13
2022-08-20T06:34:34.111Z,18.43
2022-08-20T06:37:38.497Z,18.70
2022-08-20T06:40:42.239Z,19.88
2022-08-20T06:43:46.534Z,15.00
2022-08-20T06:46:49.654Z,14.35
2022-08-20T06:49:52.633Z,14.60
2022-08-20T06:52:55.753Z,14.30
2022-08-20T06:55:59.331Z,11.95
2022-08-20T06:59:02.277Z,11.07
2022-08-20T07:02:05.760Z,10.55
2022-08-20T07:05:08.860Z,10.20
2022-08-20T07:08:13.645Z,9.20
2022-08-20T07:11:16.694Z,10.98
2022-08-20T07:14:20.222Z,11.68
2022-08-20T07:17:24.253Z,11.88
2022-08-20T07:20:27.655Z,11.20
2022-08-20T07:23:31.758Z,11.70
2022-08-20T07:26:35.035Z,11.98
2022-08-20T07:29:57.002Z,12.30
2022-08-20T07:33:00.096Z,12.00
2022-08-20T07:36:04.390Z,12.43
2022-08-20T07:39:07.594Z,12.57
2022-08-20T07:42:12.864Z,12.88
2022-08-20T07:45:18.671Z,12.15
2022-08-20T07:48:31.472Z,11.00
2022-08-20T07:51:35.815Z,10.20
2022-08-20T07:54:39.979Z,9.57
2022-08-20T07:57:43.801Z,9.15
2022-08-20T08:00:50.688Z,8.40
2022-08-20T08:03:54.970Z,8.45
2022-08-20T08:07:00.233Z,8.13
2022-08-20T08:10:04.498Z,8.13
2022-08-20T08:13:09.844Z,7.20
2022-08-20T08:16:13.277Z,6.95
2022-08-20T08:19:18.969Z,6.65
2022-08-20T08:22:22.205Z,6.70
2022-08-20T08:25:25.616Z,6.47
2022-08-20T08:28:29.648Z,7.13
2022-08-20T08:31:33.183Z,5.15
2022-08-20T08:34:37.063Z,5.22
2022-08-20T08:37:41.344Z,5.20
2022-08-20T08:40:45.060Z,5.90
2022-08-20T08:43:53.388Z,5.80
2022-08-20T08:47:04.117Z,3.70
2022-08-20T08:50:08.363Z,3.72
2022-08-20T08:53:16.266Z,7.70
2022-08-20T08:56:19.226Z,3.13
2022-08-20T08:59:23.250Z,5.10
2022-08-20T09:02:27.795Z,6.07
2022-08-20T09:05:35.165Z,3.88
2022-08-20T09:08:43.373Z,6.47
2022-08-20T09:11:50.678Z,5.37
2022-08-20T09:14:54.115Z,5.30
2022-08-20T09:17:57.306Z,5.93
2022-08-20T09:21:02.916Z,5.72
2022-08-20T09:24:06.106Z,6.40
2022-08-20T09:27:09.147Z,7.07
2022-08-20T09:30:12.938Z,6.70
2022-08-20T09:33:16.848Z,5.80
2022-08-20T09:36:31.731Z,5.90
2022-08-20T09:39:36.679Z,6.07
2022-08-20T09:42:41.808Z,5.87
2022-08-20T09:45:45.087Z,5.28
2022-08-20T09:48:48.203Z,5.25
2022-08-20T09:51:51.444Z,5.45
2022-08-20T09:55:02.189Z,6.77
2022-08-20T09:58:17.908Z,7.30
2022-08-20T10:01:23.064Z,7.97
2022-08-20T10:04:26.433Z,8.57
2022-08-20T10:07:29.869Z,7.43
2022-08-20T10:10:33.136Z,9.80
2022-08-20T10:13:36.445Z,7.90
2022-08-20T10:16:39.692Z,8.90
2022-08-20T10:19:42.915Z,7.90
2022-08-20T10:22:46.509Z,7.97
2022-08-20T10:25:49.643Z,9.67
2022-08-20T10:28:52.821Z,8.87
2022-08-20T10:31:57.081Z,8.77
2022-08-20T10:35:00.004Z,9.32
2022-08-20T10:38:03.016Z,7.97
2022-08-20T10:41:06.518Z,7.97
2022-08-20T10:44:09.479Z,7.50
2022-08-20T10:47:16.907Z,7.10
2022-08-20T10:50:20.076Z,8.18
2022-08-20T10:53:23.223Z,7.63
2022-08-20T10:56:26.328Z,6.93
2022-08-20T10:59:29.351Z,7.20
2022-08-20T11:02:32.264Z,7.55
2022-08-20T11:05:35.244Z,7.68
2022-08-20T11:08:38.309Z,7.28
2022-08-20T11:11:41.584Z,8.17
2022-08-20T11:14:45.292Z,8.13
2022-08-20T11:17:48.632Z,9.88
2022-08-20T11:20:52.303Z,9.80
2022-08-20T11:23:55.379Z,9.90
2022-08-20T11:26:58.363Z,10.27
2022-08-20T11:30:01.496Z,10.83
2022-08-20T11:33:05.073Z,9.80
2022-08-20T11:36:08.382Z,11.13
2022-08-20T11:39:11.783Z,11.13
2022-08-20T11:42:14.999Z,9.53
2022-08-20T11:45:18.059Z,11.77
2022-08-20T11:48:21.363Z,11.23
2022-08-20T11:51:24.300Z,10.40
2022-08-20T11:54:29.006Z,10.57
2022-08-20T11:57:34.040Z,12.10
2022-08-20T12:00:37.163Z,10.40
2022-08-20T12:03:40.151Z,11.27
2022-08-20T12:06:43.117Z,10.88
2022-08-20T12:09:50.692Z,11.75
2022-08-20T12:12:54.876Z,10.53
2022-08-20T12:15:58.085Z,10.30
2022-08-20T12:19:01.124Z,10.70
2022-08-20T12:22:21.325Z,12.55
2022-08-20T12:25:27.292Z,9.38
2022-08-20T12:28:31.206Z,9.20
2022-08-20T12:31:34.175Z,10.20
2022-08-20T12:34:38.203Z,10.35
2022-08-20T12:37:41.596Z,9.07
2022-08-20T12:40:44.986Z,9.02
2022-08-20T12:43:48.008Z,8.40
2022-08-20T12:46:50.929Z,9.50
2022-08-20T12:49:55.071Z,8.73
2022-08-20T12:52:58.631Z,9.48
2022-08-20T12:56:05.140Z,9.10
2022-08-20T12:59:08.296Z,9.97
2022-08-20T13:02:15.778Z,9.73
2022-08-20T13:05:23.160Z,9.57
2022-08-20T13:08:26.291Z,9.48
2022-08-20T13:11:29.971Z,8.13
2022-08-20T13:14:33.180Z,7.43
2022-08-20T13:17:38.651Z,7.47
2022-08-20T13:20:42.916Z,7.80
2022-08-20T13:23:46.029Z,7.57
2022-08-20T13:26:49.709Z,7.45
2022-08-20T13:29:58.585Z,8.63
2022-08-20T13:33:02.819Z,7.43
2022-08-20T13:36:06.128Z,7.80
2022-08-20T13:39:09.453Z,9.73
2022-08-20T13:42:13.977Z,11.05
2022-08-20T13:45:17.279Z,12.63
2022-08-20T13:48:20.521Z,10.77
2022-08-20T13:51:24.032Z,9.65
2022-08-20T13:54:30.843Z,10.93
2022-08-20T13:57:34.110Z,13.10
2022-08-20T14:00:37.547Z,13.13
2022-08-20T14:03:40.853Z,12.20
2022-08-20T14:06:45.911Z,13.65
2022-08-20T14:09:53.974Z,15.40
2022-08-20T14:12:57.303Z,14.75
2022-08-20T14:16:00.625Z,13.40
2022-08-20T14:19:03.844Z,5.63
2022-08-20T14:22:07.119Z,10.35
2022-08-20T14:25:13.326Z,11.10
2022-08-20T14:28:20.735Z,12.40
2022-08-20T14:31:23.886Z,12.93
2022-08-20T14:34:27.037Z,11.50
2022-08-20T14:37:37.930Z,9.05
2022-08-20T14:40:41.145Z,8.25
2022-08-20T14:43:44.380Z,3.20
2022-08-20T14:46:47.673Z,4.47
2022-08-20T14:49:53.252Z,7.50
2022-08-20T14:52:57.232Z,7.28
2022-08-20T14:56:01.504Z,8.43
2022-08-20T14:59:05.028Z,4.65
2022-08-20T15:02:10.872Z,4.87
2022-08-20T15:05:14.735Z,6.23
2022-08-20T15:08:17.943Z,6.15
2022-08-20T15:11:22.454Z,8.70
2022-08-20T15:14:26.713Z,10.45
2022-08-20T15:17:33.506Z,13.30
2022-08-20T15:20:37.425Z,17.43
2022-08-20T15:23:40.658Z,20.77
2022-08-20T15:26:43.881Z,23.88
2022-08-20T15:29:47.929Z,27.73
2022-08-20T15:32:55.019Z,29.27
2022-08-20T15:35:58.404Z,31.10
2022-08-20T15:39:01.601Z,27.05
2022-08-20T15:42:06.261Z,22.42
2022-08-20T15:45:10.342Z,18.73
2022-08-20T15:48:19.283Z,19.80
2022-08-20T15:51:28.343Z,15.00
2022-08-20T15:54:31.640Z,15.43
2022-08-20T15:57:57.864Z,11.82
2022-08-20T16:01:31.123Z,8.70
2022-08-20T16:04:52.055Z,9.00
2022-08-20T16:08:07.639Z,7.40
2022-08-20T16:11:26.140Z,7.53
2022-08-20T16:14:34.539Z,6.93
2022-08-20T16:17:50.968Z,6.15
2022-08-20T16:21:03.089Z,6.40
2022-08-20T16:24:12.926Z,7.10
2022-08-20T16:27:30.193Z,6.80
2022-08-20T16:30:51.156Z,5.90
2022-08-20T16:34:39.331Z,6.93
2022-08-20T16:37:46.013Z,6.83
2022-08-20T16:41:02.044Z,7.57
2022-08-20T16:44:28.730Z,6.80
2022-08-20T16:47:35.781Z,7.03
2022-08-20T16:51:01.693Z,6.78
2022-08-20T16:54:05.583Z,7.10
2022-08-20T16:57:09.619Z,6.80
2022-08-20T17:00:25.012Z,6.32
2022-08-20T17:03:31.347Z,7.22
2022-08-20T17:06:48.592Z,6.88
2022-08-20T17:09:57.904Z,7.60
2022-08-20T17:13:23.493Z,6.67
2022-08-20T17:16:40.702Z,7.13
2022-08-20T17:19:55.980Z,7.68
2022-08-20T17:23:17.909Z,7.20
2022-08-20T17:26:23.598Z,8.23
2022-08-20T17:29:30.773Z,7.90
2022-08-20T17:32:34.080Z,8.95
2022-08-20T17:35:53.643Z,9.27
2022-08-20T17:38:59.781Z,9.48
2022-08-20T17:42:09.486Z,9.07
2022-08-20T17:45:26.098Z,7.17
2022-08-20T17:48:35.831Z,9.00
2022-08-20T17:51:44.713Z,8.57
2022-08-20T17:54:49.327Z,9.50
2022-08-20T17:57:56.656Z,9.57
2022-08-20T18:01:00.619Z,9.83
2022-08-20T18:04:03.960Z,9.70
2022-08-20T18:07:34.890Z,10.02
2022-08-20T18:10:58.300Z,10.15
2022-08-20T18:14:30.273Z,10.17
2022-08-20T18:17:38.866Z,11.10
2022-08-20T18:20:55.451Z,11.73
2022-08-20T18:24:10.352Z,12.30
2022-08-20T18:27:17.349Z,12.23
2022-08-20T18:30:24.347Z,12.60
2022-08-20T18:33:30.281Z,18.77
2022-08-20T18:36:34.423Z,18.48
2022-08-20T18:39:40.463Z,22.67
2022-08-20T18:42:44.284Z,23.17
2022-08-20T18:45:47.493Z,19.50
2022-08-20T18:48:59.512Z,17.97
2022-08-20T18:52:22.868Z,18.33
2022-08-20T18:55:33.343Z,19.63
2022-08-20T18:58:48.792Z,21.23
2022-08-20T19:01:52.222Z,19.77
2022-08-20T19:05:02.824Z,19.60
2022-08-20T19:08:07.882Z,19.42
2022-08-20T19:11:31.908Z,20.48
2022-08-20T19:14:53.436Z,19.25
2022-08-20T19:18:10.255Z,19.03
2022-08-20T19:21:15.966Z,19.70
2022-08-20T19:24:31.325Z,19.27
2022-08-20T19:27:34.946Z,18.70
2022-08-20T19:30:41.571Z,16.92
2022-08-20T19:33:46.902Z,15.97
2022-08-20T19:37:10.132Z,13.50
2022-08-20T19:40:38.859Z,18.27
2022-08-20T19:43:44.688Z,19.65
2022-08-20T19:46:48.628Z,19.10
2022-08-20T19:50:16.080Z,19.50
2022-08-20T19:53:34.765Z,19.03
2022-08-20T19:56:41.986Z,18.83
2022-08-20T20:00:07.547Z,17.92
2022-08-20T20:03:19.510Z,18.02
2022-08-20T20:06:24.776Z,16.27
2022-08-20T20:09:29.925Z,16.53
2022-08-20T20:12:34.617Z,16.90
2022-08-20T20:15:39.241Z,18.52
2022-08-20T20:18:43.232Z,19.17
2022-08-20T20:21:49.259Z,19.03
2022-08-20T20:25:17.201Z,20.37
2022-08-20T20:28:28.022Z,21.40
2022-08-20T20:31:36.503Z,22.42
2022-08-20T20:34:55.255Z,21.35
2022-08-20T20:38:11.397Z,22.07
2022-08-20T20:41:23.864Z,22.63
2022-08-20T20:44:28.883Z,21.13
2022-08-20T20:47:35.898Z,17.60
2022-08-20T20:50:39.637Z,17.00
2022-08-20T20:53:51.603Z,14.43
2022-08-20T20:57:04.566Z,14.27
2022-08-20T21:00:13.142Z,14.93
2022-08-20T21:03:16.381Z,14.48
2022-08-20T21:06:24.797Z,13.50
2022-08-20T21:09:28.489Z,13.33
2022-08-20T21:12:31.725Z,13.53
2022-08-20T21:15:37.491Z,12.73
2022-08-20T21:18:41.070Z,12.27
2022-08-20T21:21:44.348Z,12.68
2022-08-20T21:24:51.324Z,12.53
2022-08-20T21:27:55.240Z,12.17
2022-08-20T21:30:58.973Z,12.85
2022-08-20T21:34:02.604Z,12.30
2022-08-20T21:37:05.819Z,13.27
2022-08-20T21:40:09.928Z,12.03
2022-08-20T21:43:13.287Z,12.03
2022-08-20T21:46:18.153Z,14.05
2022-08-20T21:49:29.941Z,14.55
2022-08-20T21:52:35.466Z,15.50
2022-08-20T21:55:39.803Z,16.03
2022-08-20T21:58:45.385Z,16.00
2022-08-20T22:01:48.851Z,15.38
2022-08-20T22:04:53.966Z,16.63
2022-08-20T22:07:57.348Z,16.42
2022-08-20T22:11:01.300Z,16.23
2022-08-20T22:14:08.327Z,16.20
2022-08-20T22:17:11.614Z,15.70
2022-08-20T22:20:14.865Z,15.38
2022-08-20T22:23:18.102Z,15.52
2022-08-20T22:26:21.426Z,15.30
2022-08-20T22:29:25.064Z,14.90
2022-08-20T22:32:33.382Z,15.30
2022-08-20T22:35:55.134Z,15.65
2022-08-20T22:38:58.503Z,15.15
2022-08-20T22:42:01.833Z,15.27
2022-08-20T22:45:05.331Z,15.57
2022-08-20T22:48:20.200Z,16.17
2022-08-20T22:51:32.452Z,15.80
2022-08-20T22:54:39.316Z,17.00
2022-08-20T22:57:48.319Z,17.20
2022-08-20T23:00:53.747Z,17.93
2022-08-20T23:04:12.272Z,16.50
2022-08-20T23:07:15.809Z,15.75
2022-08-20T23:10:19.191Z,18.23
2022-08-20T23:13:22.571Z,16.97
2022-08-20T23:16:26.171Z,18.17
2022-08-20T23:19:32.423Z,17.92
2022-08-20T23:22:36.024Z,18.80
2022-08-20T23:25:41.536Z,18.35
2022-08-20T23:28:44.747Z,17.43
2022-08-20T23:31:47.940Z,18.30
2022-08-20T23:34:52.212Z,18.88
2022-08-20T23:37:57.556Z,18.58
2022-08-20T23:41:00.969Z,17.20
2022-08-20T23:44:04.487Z,18.30
2022-08-20T23:47:08.475Z,17.93
2022-08-20T23:50:21.005Z,17.13
2022-08-20T23:53:27.340Z,17.50
2022-08-20T23:56:30.672Z,17.65
2022-08-20T23:59:34.115Z,16.90
